Nearby METAR Reports

 

KBFI - Seattle/Boeing, Washington, USA
Distance from station: S 10mi, 16km
Updated: Mon, 10-Dec-2018 9:53am PST
Mostly cloudy
Mostly cloudy
 Wind from SSE
Wind: SSE 9 mph , 15 km/h
Temperature: 46°F , 8°C
Wind Chill: 41°F , 5°C
Dew Point: 41°F , 5°C
Humidity: 82%
Barometer: 30.26 inHg , 1024.7 hPa
Clouds: Mostly cloudy
Visibility: 10 miles , 16 km
Cloud details: Few Clouds 1000 ft
Partly cloudy 2300 ft
Mostly cloudy 9000 ft
2018/12/10 17:53 KBFI 101753Z 15008KT 10SM FEW010 SCT023 BKN090 08/05 A3026 RMK AO2 SLP248 T00780050 10078 20056 51015
KRNT - Renton, Washington, USA
Distance from station: SSE 14mi, 23km
Updated: Mon, 10-Dec-2018 9:53am PST
Mostly cloudy
Mostly cloudy
 Wind from ESE
Wind: ESE 3 mph , 6 km/h
Temperature: 45°F , 7°C
Dew Point: 41°F , 5°C
Humidity: 87%
Barometer: 30.27 inHg , 1025.1 hPa
Clouds: Mostly cloudy
Visibility: 10 miles , 16 km
Cloud details: Few Clouds 2900 ft
Partly cloudy 3500 ft
Mostly cloudy 4500 ft
2018/12/10 17:53 KRNT 101753Z 12003KT 10SM FEW029 SCT035 BKN045 07/05 A3027 RMK AO2 SLP255 60000 T00720050 10072 20056 51017 $
 
KPAE - Everett, Washington, USA
Distance from station: N 15mi, 25km
Updated: Mon, 10-Dec-2018 9:53am PST
Overcast
Overcast
 Wind from SSE
Wind: SSE 12 mph , 19 km/h
Temperature: 45°F , 7°C
Wind Chill: 39°F , 4°C
Dew Point: 43°F , 6°C
Humidity: 93%
Barometer: 30.24 inHg , 1024 hPa
Clouds: Overcast
Visibility: 10 miles , 16 km
Cloud details: Mostly cloudy 500 ft
Overcast 1100 ft
2018/12/10 17:53 KPAE 101753Z 15010KT 10SM BKN005 OVC011 07/06 A3024 RMK AO2 SLP244 T00670056 10067 20056 51015
KSEA - Seattle/Metro, Washington, USA
Distance from station: S 17mi, 27km
Updated: Mon, 10-Dec-2018 9:53am PST
Mostly cloudy
Mostly cloudy
 Wind from SSW
Wind: SSW 7 mph , 11 km/h
Temperature: 46°F , 8°C
Wind Chill: 42°F , 6°C
Dew Point: 43°F , 6°C
Humidity: 87%
Barometer: 30.26 inHg , 1024.7 hPa
Clouds: Mostly cloudy
Visibility: 10 miles , 16 km
Cloud details: Few Clouds 700 ft
Mostly cloudy 1900 ft
Mostly cloudy 8000 ft
2018/12/10 17:53 KSEA 101753Z 21006KT 10SM FEW007 BKN019 BKN080 08/06 A3026 RMK AO2 SLP255 T00780056 10078 20056 51016
 
KPWT - Bremerton Ntnl, Washington, USA
Distance from station: SW 24mi, 39km
Updated: Mon, 10-Dec-2018 9:56am PST
Overcast
Overcast
 Wind from S
Wind: S 7 mph , 11 km/h
Temperature: 43°F , 6°C
Wind Chill: 39°F , 4°C
Dew Point: 41°F , 5°C
Humidity: 93%
Barometer: 30.25 inHg , 1024.4 hPa
Clouds: Overcast
Visibility: 10 miles , 16 km
Cloud details: Overcast 300 ft
2018/12/10 17:56 KPWT 101756Z AUTO 19006KT 10SM OVC003 06/05 A3025 RMK AO2 RAB29E53 SLP263 P0001 60001 T00560050 10061 20050 51014
KTIW - Tacoma, Washington, USA
Distance from station: SSW 32mi, 52km
Updated: Mon, 10-Dec-2018 10:08am PST
Light rain, Mist, Mostly cloudy
Light rain, Mist, Mostly cloudy
 Wind from S
Wind: S 3 mph , 6 km/h
Temperature: 43°F , 6°C
Dew Point: 41°F , 5°C
Humidity: 93%
Barometer: 30.28 inHg , 1025.4 hPa
Summary: Light rain, Mist
Clouds: Mostly cloudy
Visibility: 6 miles , 10 km
Cloud details: Mostly cloudy 700 ft
Mostly cloudy 1100 ft
2018/12/10 18:08 KTIW 101808Z 18003KT 6SM -RA BR BKN007 BKN011 06/05 A3028 RMK AO2 RAB06 P0000 T00610050
 
KAWO - Arlington Muni, Washington, USA
Distance from station: N 33mi, 54km
Updated: Mon, 10-Dec-2018 9:56am PST
Overcast
Overcast
 Wind from SSE
Wind: SSE 7 mph , 11 km/h
Temperature: 45°F , 7°C
Wind Chill: 41°F , 5°C
Dew Point: 43°F , 6°C
Humidity: 93%
Barometer: 30.26 inHg , 1024.7 hPa
Clouds: Overcast
Visibility: 10 miles , 16 km
Cloud details: Mostly cloudy 1400 ft
Overcast 2000 ft
2018/12/10 17:56 KAWO 101756Z AUTO 15006KT 10SM BKN014 OVC020 07/06 A3026 RMK AO2 SLP250 60001 T00670056 10067 20050 53014
KTCM - Tacoma/Mc Chord, Washington, USA
Distance from station: S 41mi, 65km
Updated: Mon, 10-Dec-2018 9:58am PST
Partly cloudy
Partly cloudy
 Wind from SSW
Wind: SSW 6 mph , 9 km/h
Temperature: 45°F , 7°C
Wind Chill: 42°F , 6°C
Dew Point: 45°F , 7°C
Humidity: 100%
Barometer: 30.27 inHg , 1025.1 hPa
Clouds: Partly cloudy
Visibility: 10 miles , 16 km
Cloud details: Partly cloudy 11000 ft
2018/12/10 17:58 KTCM 101758Z AUTO 20005KT 10SM SCT110 07/07 A3027 RMK AO2 SLP256 60008 T00690069 10069 20019 52015 $
 
KPLU - Puyallup/Thun, Washington, USA
Distance from station: S 41mi, 66km
Updated: Mon, 10-Dec-2018 10:15am PST
Mostly cloudy
Mostly cloudy
 Wind from calm
Wind: Calm
Temperature: 46°F , 8°C
Dew Point: 45°F , 7°C
Humidity: 93%
Barometer: 30.27 inHg , 1025.1 hPa
Clouds: Mostly cloudy
Visibility: 10 miles , 16 km
Cloud details: Partly cloudy 3100 ft
Mostly cloudy 12000 ft
2018/12/10 18:15 KPLU 101815Z AUTO 00000KT 10SM SCT031 BKN120 08/07 A3027 RMK AO2
KGRF - Fort Lewis/Gray, Washington, USA
Distance from station: SSW 45mi, 72km
Updated: Mon, 10-Dec-2018 9:58am PST
Mostly cloudy
Mostly cloudy
 Wind from SE
Wind: SE 8 mph , 13 km/h
Temperature: 45°F , 7°C
Wind Chill: 41°F , 5°C
Dew Point: 43°F , 6°C
Humidity: 93%
Barometer: 30.27 inHg , 1025.1 hPa
Clouds: Mostly cloudy
Visibility: 10 miles , 16 km
Cloud details: Few Clouds 5500 ft
Mostly cloudy 10000 ft
2018/12/10 17:58 KGRF 101758Z 14007KT 10SM FEW055 BKN100 07/06 A3027 RMK AO2A SLP256 60004 10072 20018 52014 $
 
KNUW - Whidbey Is. Nas, Washington, USA
Distance from station: NNW 48mi, 77km
Updated: Mon, 10-Dec-2018 10:05am PST
Light rain, Overcast
Light rain, Overcast
 Wind from ESE
Wind: ESE 5 mph , 7 km/h
Temperature: 48°F , 9°C
Wind Chill: 46°F , 8°C
Dew Point: 46°F , 8°C
Humidity: 94%
Barometer: 30.28 inHg , 1025.4 hPa
Summary: Light rain
Clouds: Overcast
Visibility: 10 miles , 16 km
Cloud details: Few Clouds 800 ft
Mostly cloudy 1200 ft
Overcast 3200 ft
2018/12/10 18:05 KNUW 101805Z 11004KT 10SM -RA FEW008 BKN012 OVC032 09/08 A3028 RMK AO2 RAB1758 P0000 T00890078 $
KSHN - Shelton, Washington, USA
Distance from station: SW 50mi, 80km
Updated: Mon, 10-Dec-2018 9:53am PST
Overcast
Overcast
 Wind from SSW
Wind: SSW 6 mph , 9 km/h
Temperature: 45°F , 7°C
Wind Chill: 42°F , 6°C
Dew Point: 43°F , 6°C
Humidity: 93%
Barometer: 30.25 inHg , 1024.4 hPa
Clouds: Overcast
Visibility: 10 miles , 16 km
Cloud details: Mostly cloudy 1400 ft
Mostly cloudy 2100 ft
Overcast 2800 ft
2018/12/10 17:53 KSHN 101753Z AUTO 21005KT 10SM BKN014 BKN021 OVC028 07/06 A3025 RMK AO2 RAB1654E34 SLP246 P0006 60011 T00720056 10078 20011 51016